createdAt,value
2018-08-13T00:00:59.580Z,77.92
2018-08-13T00:03:27.864Z,78.28
2018-08-13T00:05:56.179Z,78.19
2018-08-13T00:08:24.479Z,77.33
2018-08-13T00:10:52.781Z,76.68
2018-08-13T00:13:21.064Z,75.73
2018-08-13T00:15:49.413Z,76.47
2018-08-13T00:18:17.669Z,76.48
2018-08-13T00:20:45.967Z,76.60
2018-08-13T00:23:14.225Z,76.33
2018-08-13T00:25:42.520Z,74.95
2018-08-13T00:28:11.285Z,73.81
2018-08-13T00:30:40.103Z,72.95
2018-08-13T00:33:09.672Z,71.31
2018-08-13T00:35:37.982Z,70.95
2018-08-13T00:38:06.537Z,71.45
2018-08-13T00:40:34.909Z,70.90
2018-08-13T00:43:03.273Z,70.30
2018-08-13T00:45:32.598Z,69.86
2018-08-13T00:48:00.917Z,68.62
2018-08-13T00:50:30.298Z,69.17
2018-08-13T00:52:58.549Z,70.66
2018-08-13T00:55:26.829Z,71.31
2018-08-13T00:57:55.105Z,71.77
2018-08-13T01:00:23.599Z,72.10
2018-08-13T01:02:52.288Z,72.43
2018-08-13T01:05:22.073Z,73.51
2018-08-13T01:07:50.699Z,75.11
2018-08-13T01:10:20.361Z,75.28
2018-08-13T01:12:48.710Z,75.22
2018-08-13T01:15:18.502Z,75.37
2018-08-13T01:17:48.085Z,75.56
2018-08-13T01:20:19.187Z,75.65
2018-08-13T01:22:47.548Z,75.10
2018-08-13T01:25:17.389Z,75.22
2018-08-13T01:27:46.803Z,75.77
2018-08-13T01:30:17.456Z,76.01
2018-08-13T01:32:46.857Z,76.00
2018-08-13T01:35:15.133Z,77.02
2018-08-13T01:37:43.454Z,76.80
2018-08-13T01:40:12.426Z,77.03
2018-08-13T01:42:40.753Z,76.85
2018-08-13T01:45:11.580Z,77.55
2018-08-13T01:47:40.718Z,77.65
2018-08-13T01:50:10.597Z,77.50
2018-08-13T01:52:40.228Z,77.77
2018-08-13T01:55:10.630Z,77.75
2018-08-13T01:57:39.033Z,77.92
2018-08-13T02:00:16.701Z,78.29
2018-08-13T02:02:45.042Z,77.78
2018-08-13T02:05:13.305Z,77.89
2018-08-13T02:07:41.949Z,78.11
2018-08-13T02:10:12.276Z,78.53
2018-08-13T02:12:40.996Z,78.66
2018-08-13T02:15:09.438Z,78.39
2018-08-13T02:17:37.748Z,78.61
2018-08-13T02:20:07.256Z,78.52
2018-08-13T02:22:35.672Z,78.50
2018-08-13T02:25:04.601Z,78.53
2018-08-13T02:27:32.882Z,78.58
2018-08-13T02:30:01.198Z,78.32
2018-08-13T02:32:29.496Z,78.78
2018-08-13T02:34:57.777Z,78.56
2018-08-13T02:37:32.308Z,77.68
2018-08-13T02:40:00.652Z,78.02
2018-08-13T02:42:29.114Z,77.86
2018-08-13T02:44:57.393Z,78.04
2018-08-13T02:47:25.653Z,77.19
2018-08-13T02:49:54.957Z,76.90
2018-08-13T02:52:23.228Z,77.42
2018-08-13T02:54:51.509Z,77.82
2018-08-13T02:57:19.773Z,78.42
2018-08-13T02:59:48.057Z,78.29
2018-08-13T03:02:18.364Z,78.76
2018-08-13T03:04:46.706Z,78.80
2018-08-13T03:07:14.913Z,78.97
2018-08-13T03:09:43.185Z,78.91
2018-08-13T03:12:11.505Z,78.90
2018-08-13T03:14:39.806Z,78.50
2018-08-13T03:17:09.447Z,78.30
2018-08-13T03:19:37.709Z,78.61
2018-08-13T03:22:06.017Z,78.42
2018-08-13T03:24:34.260Z,78.16
2018-08-13T03:27:03.636Z,77.77
2018-08-13T03:29:31.922Z,78.30
2018-08-13T03:32:00.209Z,78.62
2018-08-13T03:34:28.472Z,77.95
2018-08-13T03:36:56.763Z,78.45
2018-08-13T03:39:25.073Z,78.75
2018-08-13T03:41:53.356Z,78.75
2018-08-13T03:44:21.621Z,78.25
2018-08-13T03:46:49.926Z,78.25
2018-08-13T03:49:18.169Z,77.53
2018-08-13T03:51:47.553Z,77.70
2018-08-13T03:54:15.810Z,79.27
2018-08-13T03:56:44.190Z,79.66
2018-08-13T03:59:12.492Z,80.60
2018-08-13T04:01:40.804Z,81.20
2018-08-13T04:04:09.111Z,81.71
2018-08-13T04:06:37.349Z,81.98
2018-08-13T04:09:08.328Z,82.29
2018-08-13T04:11:37.027Z,82.82
2018-08-13T04:14:06.245Z,83.07
2018-08-13T04:16:34.488Z,83.43
2018-08-13T04:19:03.274Z,83.57
2018-08-13T04:21:31.527Z,83.59
2018-08-13T04:23:59.837Z,82.94
2018-08-13T04:26:28.109Z,82.01
2018-08-13T04:28:56.392Z,81.29
2018-08-13T04:31:24.652Z,80.19
2018-08-13T04:33:52.925Z,79.96
2018-08-13T04:36:21.204Z,78.36
2018-08-13T04:38:49.461Z,76.85
2018-08-13T04:41:17.749Z,75.13
2018-08-13T04:43:46.049Z,73.24
2018-08-13T04:46:14.296Z,72.52
2018-08-13T04:48:42.577Z,71.92
2018-08-13T04:51:10.828Z,71.16
2018-08-13T04:53:39.113Z,70.96
2018-08-13T04:56:07.382Z,70.32
2018-08-13T04:58:35.672Z,69.99
2018-08-13T05:01:03.981Z,70.19
2018-08-13T05:03:32.296Z,68.94
2018-08-13T05:06:00.545Z,69.12
2018-08-13T05:08:28.811Z,68.80
2018-08-13T05:10:57.077Z,68.00
2018-08-13T05:13:25.336Z,67.61
2018-08-13T05:15:53.669Z,67.83
2018-08-13T05:18:22.312Z,67.22
2018-08-13T05:20:50.604Z,67.45
2018-08-13T05:23:18.940Z,66.41
2018-08-13T05:25:47.269Z,66.96
2018-08-13T05:28:15.620Z,65.54
2018-08-13T05:30:43.917Z,65.14
2018-08-13T05:33:12.200Z,64.44
2018-08-13T05:35:40.489Z,65.45
2018-08-13T05:38:09.756Z,65.13
2018-08-13T05:40:38.077Z,65.09
2018-08-13T05:43:06.632Z,64.70
2018-08-13T05:45:34.973Z,65.08
2018-08-13T05:48:03.388Z,65.10
2018-08-13T05:50:34.172Z,65.47
2018-08-13T05:53:02.540Z,65.37
2018-08-13T05:55:30.753Z,65.42
2018-08-13T05:57:59.473Z,65.12
2018-08-13T06:00:27.721Z,64.99
2018-08-13T06:02:56.070Z,64.62
2018-08-13T06:05:24.293Z,64.98
2018-08-13T06:07:52.595Z,65.08
2018-08-13T06:10:20.904Z,65.19
2018-08-13T06:12:49.192Z,67.09
2018-08-13T06:15:17.457Z,66.26
2018-08-13T06:17:45.717Z,66.61
2018-08-13T06:20:14.038Z,66.59
2018-08-13T06:22:43.784Z,65.76
2018-08-13T06:25:12.972Z,66.14
2018-08-13T06:27:41.265Z,66.97
2018-08-13T06:30:12.084Z,67.82
2018-08-13T06:32:41.222Z,66.20
2018-08-13T06:35:09.821Z,65.76
2018-08-13T06:37:38.084Z,67.32
2018-08-13T06:40:06.997Z,66.84
2018-08-13T06:42:35.248Z,65.69
2018-08-13T06:45:03.765Z,64.67
2018-08-13T06:47:32.025Z,64.01
2018-08-13T06:50:00.370Z,64.13
2018-08-13T06:52:28.625Z,64.73
2018-08-13T06:54:56.913Z,64.44
2018-08-13T06:57:25.212Z,64.27
2018-08-13T06:59:53.512Z,62.38
2018-08-13T07:02:21.821Z,61.84
2018-08-13T07:04:50.116Z,61.49
2018-08-13T07:07:18.453Z,60.60
2018-08-13T07:09:46.757Z,59.25
2018-08-13T07:12:15.073Z,58.79
2018-08-13T07:14:43.441Z,58.97
2018-08-13T07:17:11.736Z,59.02
2018-08-13T07:19:39.969Z,58.75
2018-08-13T07:22:08.298Z,59.88
2018-08-13T07:24:37.026Z,60.10
2018-08-13T07:27:05.317Z,60.31
2018-08-13T07:29:33.564Z,59.58
2018-08-13T07:32:01.853Z,59.84
2018-08-13T07:34:30.108Z,60.56
2018-08-13T07:36:58.393Z,60.59
2018-08-13T07:39:26.742Z,59.96
2018-08-13T07:41:54.997Z,61.10
2018-08-13T07:44:23.253Z,61.20
2018-08-13T07:46:52.612Z,60.72
2018-08-13T07:49:20.877Z,62.16
2018-08-13T07:51:49.220Z,61.46
2018-08-13T07:54:17.405Z,61.29
2018-08-13T07:56:45.682Z,60.45
2018-08-13T07:59:13.940Z,60.27
2018-08-13T08:01:42.193Z,59.82
2018-08-13T08:04:10.492Z,59.17
2018-08-13T08:06:39.941Z,59.41
2018-08-13T08:09:10.727Z,58.92
2018-08-13T08:11:39.820Z,57.98
2018-08-13T08:14:08.592Z,57.50
2018-08-13T08:16:36.842Z,58.58
2018-08-13T08:19:05.117Z,58.27
2018-08-13T08:21:33.397Z,56.96
2018-08-13T08:24:02.110Z,56.79
2018-08-13T08:26:30.709Z,56.85
2018-08-13T08:28:59.003Z,56.91
2018-08-13T08:31:27.325Z,55.67
2018-08-13T08:33:55.641Z,55.80
2018-08-13T08:36:23.974Z,54.34
2018-08-13T08:38:52.552Z,54.15
2018-08-13T08:41:20.877Z,53.97
2018-08-13T08:43:49.130Z,53.54
2018-08-13T08:46:17.417Z,53.31
2018-08-13T08:48:45.661Z,52.17
2018-08-13T08:51:14.061Z,52.12
2018-08-13T08:53:42.420Z,51.67
2018-08-13T08:56:10.589Z,51.69
2018-08-13T08:58:38.868Z,50.13
2018-08-13T09:01:07.141Z,50.03
2018-08-13T09:03:35.543Z,50.80
2018-08-13T09:06:04.215Z,50.91
2018-08-13T09:08:32.410Z,50.55
2018-08-13T09:11:00.676Z,49.31
2018-08-13T09:13:28.949Z,48.29
2018-08-13T09:15:57.246Z,47.20
2018-08-13T09:18:36.689Z,46.40
2018-08-13T09:21:16.245Z,46.63
2018-08-13T09:23:55.942Z,45.72
2018-08-13T09:26:35.632Z,45.45
2018-08-13T09:29:15.105Z,44.32
2018-08-13T09:32:27.223Z,44.37
2018-08-13T09:35:17.150Z,44.14
2018-08-13T09:37:45.546Z,44.05
2018-08-13T09:40:13.888Z,43.30
2018-08-13T09:42:42.252Z,41.49
2018-08-13T09:45:10.517Z,42.26
2018-08-13T09:47:39.467Z,41.79
2018-08-13T09:50:10.177Z,40.58
2018-08-13T09:52:38.481Z,39.07
2018-08-13T09:55:07.960Z,38.30
2018-08-13T09:57:36.249Z,37.17
2018-08-13T10:00:07.169Z,38.33
2018-08-13T10:02:35.441Z,37.44
2018-08-13T10:05:03.763Z,37.10
2018-08-13T10:07:32.041Z,37.43
2018-08-13T10:10:00.325Z,37.29
2018-08-13T10:12:28.581Z,37.34
2018-08-13T10:14:56.960Z,37.43
2018-08-13T10:17:25.287Z,37.82
2018-08-13T10:19:53.584Z,40.56
2018-08-13T10:22:22.046Z,40.08
2018-08-13T10:24:50.344Z,40.66
2018-08-13T10:27:18.617Z,40.79
2018-08-13T10:29:47.002Z,40.31
2018-08-13T10:32:15.246Z,40.62
2018-08-13T10:34:44.589Z,40.62
2018-08-13T10:37:12.925Z,40.96
2018-08-13T10:39:41.206Z,40.99
2018-08-13T10:42:09.502Z,40.47
2018-08-13T10:44:37.797Z,39.92
2018-08-13T10:47:06.077Z,40.38
2018-08-13T10:49:34.397Z,41.24
2018-08-13T10:52:02.645Z,41.32
2018-08-13T10:54:30.912Z,38.59
2018-08-13T10:56:59.204Z,39.54
2018-08-13T10:59:27.454Z,37.79
2018-08-13T11:01:55.742Z,38.28
2018-08-13T11:04:24.024Z,37.73
2018-08-13T11:06:52.322Z,38.67
2018-08-13T11:09:20.564Z,38.88
2018-08-13T11:11:48.876Z,38.54
2018-08-13T11:14:17.153Z,38.86
2018-08-13T11:16:45.455Z,38.64
2018-08-13T11:19:13.708Z,38.91
2018-08-13T11:21:42.253Z,39.54
2018-08-13T11:24:10.493Z,39.16
2018-08-13T11:26:38.741Z,39.40
2018-08-13T11:29:08.109Z,39.01
2018-08-13T11:31:36.419Z,39.93
2018-08-13T11:34:04.705Z,39.79
2018-08-13T11:36:32.969Z,37.38
2018-08-13T11:39:01.282Z,36.85
2018-08-13T11:41:30.618Z,36.24
2018-08-13T11:43:58.897Z,35.16
2018-08-13T11:46:27.300Z,34.97
2018-08-13T11:48:55.585Z,34.17
2018-08-13T11:51:23.885Z,33.65
2018-08-13T11:53:52.168Z,32.86
2018-08-13T11:56:20.587Z,31.90
2018-08-13T11:58:48.977Z,31.65
2018-08-13T12:01:17.272Z,31.84
2018-08-13T12:03:45.612Z,30.37
2018-08-13T12:06:13.857Z,30.87
2018-08-13T12:08:42.193Z,31.20
2018-08-13T12:11:10.525Z,31.10
2018-08-13T12:13:38.820Z,31.81
2018-08-13T12:16:07.229Z,31.17
2018-08-13T12:18:35.495Z,31.15
2018-08-13T12:21:03.777Z,30.41
2018-08-13T12:23:32.021Z,29.46
2018-08-13T12:26:00.309Z,28.97
2018-08-13T12:28:28.548Z,31.09
2018-08-13T12:30:56.958Z,33.82
2018-08-13T12:33:25.217Z,35.11
2018-08-13T12:35:53.509Z,36.14
2018-08-13T12:38:21.825Z,36.80
2018-08-13T12:40:50.121Z,37.18
2018-08-13T12:43:18.377Z,37.84
2018-08-13T12:45:46.790Z,36.81
2018-08-13T12:48:15.109Z,37.88
2018-08-13T12:50:43.421Z,39.62
2018-08-13T12:53:11.717Z,40.57
2018-08-13T12:55:40.134Z,40.51
2018-08-13T12:58:08.421Z,41.19
2018-08-13T13:00:36.758Z,40.62
2018-08-13T13:03:05.061Z,41.47
2018-08-13T13:05:33.449Z,40.99
2018-08-13T13:08:01.754Z,41.92
2018-08-13T13:10:30.044Z,41.81
2018-08-13T13:12:58.375Z,40.52
2018-08-13T13:15:26.625Z,40.42
2018-08-13T13:17:54.968Z,40.49
2018-08-13T13:20:23.880Z,39.72
2018-08-13T13:22:52.609Z,39.08
2018-08-13T13:25:21.244Z,39.81
2018-08-13T13:27:49.625Z,40.70
2018-08-13T13:30:18.293Z,40.63
2018-08-13T13:32:46.825Z,39.81
2018-08-13T13:35:16.436Z,39.95
2018-08-13T13:37:44.716Z,39.78
2018-08-13T13:40:15.690Z,40.50
2018-08-13T13:42:44.001Z,40.55
2018-08-13T13:45:12.782Z,40.52
2018-08-13T13:47:41.143Z,40.34
2018-08-13T13:50:13.983Z,40.02
2018-08-13T13:52:42.496Z,40.10
2018-08-13T13:55:12.180Z,40.63
2018-08-13T13:57:40.494Z,40.67
2018-08-13T14:00:15.405Z,41.97
2018-08-13T14:02:43.770Z,42.15
2018-08-13T14:05:12.082Z,42.05
2018-08-13T14:07:40.341Z,41.03
2018-08-13T14:10:14.159Z,40.97
2018-08-13T14:12:42.757Z,40.77
2018-08-13T14:15:13.129Z,41.34
2018-08-13T14:17:42.105Z,40.56
2018-08-13T14:20:11.135Z,39.17
2018-08-13T14:22:40.180Z,38.75
2018-08-13T14:25:10.313Z,38.85
2018-08-13T14:27:38.665Z,39.28
2018-08-13T14:30:11.048Z,39.55
2018-08-13T14:32:39.323Z,40.20
2018-08-13T14:35:07.697Z,39.79
2018-08-13T14:37:36.047Z,40.43
2018-08-13T14:40:04.677Z,40.81
2018-08-13T14:42:32.976Z,40.71
2018-08-13T14:45:01.247Z,41.89
2018-08-13T14:47:29.561Z,43.02
2018-08-13T14:49:57.851Z,44.10
2018-08-13T14:52:26.106Z,44.07
2018-08-13T14:54:57.813Z,44.91
2018-08-13T14:57:26.435Z,44.21
2018-08-13T14:59:54.789Z,44.99
2018-08-13T15:02:23.057Z,44.90
2018-08-13T15:04:51.334Z,45.22
2018-08-13T15:07:19.629Z,44.95
2018-08-13T15:09:47.945Z,45.27
2018-08-13T15:12:16.236Z,44.93
2018-08-13T15:14:44.545Z,45.07
2018-08-13T15:17:12.838Z,44.75
2018-08-13T15:19:48.461Z,44.19
2018-08-13T15:22:16.789Z,43.90
2018-08-13T15:24:45.029Z,44.65
2018-08-13T15:27:13.409Z,46.07
2018-08-13T15:29:41.581Z,46.04
2018-08-13T15:32:09.873Z,46.97
2018-08-13T15:34:38.125Z,47.63
2018-08-13T15:37:06.405Z,47.79
2018-08-13T15:39:34.660Z,47.99
2018-08-13T15:42:03.090Z,49.45
2018-08-13T15:44:31.502Z,49.83
2018-08-13T15:47:00.033Z,49.55
2018-08-13T15:49:28.285Z,49.88
2018-08-13T15:51:56.681Z,51.48
2018-08-13T15:54:24.993Z,52.09
2018-08-13T15:56:53.277Z,53.04
2018-08-13T15:59:22.596Z,54.62
2018-08-13T16:01:50.930Z,55.23
2018-08-13T16:04:20.209Z,55.98
2018-08-13T16:06:49.477Z,56.63
2018-08-13T16:09:17.793Z,57.53
2018-08-13T16:11:46.036Z,57.70
2018-08-13T16:14:14.349Z,57.71
2018-08-13T16:16:42.600Z,58.08
2018-08-13T16:19:10.902Z,58.89
2018-08-13T16:21:39.231Z,58.90
2018-08-13T16:24:07.549Z,57.99
2018-08-13T16:26:35.876Z,57.87
2018-08-13T16:29:04.169Z,57.17
2018-08-13T16:31:32.608Z,56.96
2018-08-13T16:34:00.888Z,56.42
2018-08-13T16:36:29.133Z,56.46
2018-08-13T16:38:57.408Z,56.27
2018-08-13T16:41:25.684Z,57.26
2018-08-13T16:43:54.117Z,57.31
2018-08-13T16:46:22.374Z,58.44
2018-08-13T16:48:50.665Z,59.05
2018-08-13T16:51:18.948Z,59.48
2018-08-13T16:53:47.262Z,59.62
2018-08-13T16:56:15.627Z,60.39
2018-08-13T16:58:43.923Z,60.43
2018-08-13T17:01:12.267Z,60.25
2018-08-13T17:03:40.606Z,59.86
2018-08-13T17:06:08.884Z,60.82
2018-08-13T17:08:37.202Z,61.34
2018-08-13T17:11:05.882Z,62.47
2018-08-13T17:13:34.204Z,62.14
2018-08-13T17:16:03.581Z,62.18
2018-08-13T17:18:32.053Z,61.71
2018-08-13T17:21:01.444Z,60.89
2018-08-13T17:23:29.697Z,59.27
2018-08-13T17:25:58.005Z,58.70
2018-08-13T17:28:26.251Z,58.18
2018-08-13T17:30:54.532Z,58.26
2018-08-13T17:33:22.809Z,58.93
2018-08-13T17:35:51.169Z,57.32
2018-08-13T17:38:19.439Z,59.57
2018-08-13T17:40:47.770Z,59.24
2018-08-13T17:43:16.341Z,57.90
2018-08-13T17:45:44.490Z,57.71
2018-08-13T17:48:12.753Z,57.35
2018-08-13T17:50:41.049Z,56.97
2018-08-13T17:53:10.257Z,57.39
2018-08-13T17:55:38.677Z,57.33
2018-08-13T17:58:08.052Z,57.36
2018-08-13T18:00:36.328Z,57.50
2018-08-13T18:03:04.590Z,57.94
2018-08-13T18:05:32.864Z,58.96
2018-08-13T18:08:01.112Z,59.36
2018-08-13T18:10:32.565Z,59.42
2018-08-13T18:13:02.549Z,59.02
2018-08-13T18:15:31.262Z,58.64
2018-08-13T18:17:59.597Z,58.76
2018-08-13T18:20:28.265Z,59.09
2018-08-13T18:22:56.601Z,59.23
2018-08-13T18:25:24.941Z,60.20
2018-08-13T18:27:53.564Z,61.00
2018-08-13T18:30:25.021Z,60.08
2018-08-13T18:32:53.748Z,60.83
2018-08-13T18:35:22.032Z,61.17
2018-08-13T18:37:50.321Z,61.61
2018-08-13T18:40:22.265Z,60.26
2018-08-13T18:42:50.835Z,59.84
2018-08-13T18:45:19.097Z,59.52
2018-08-13T18:47:48.177Z,60.22
2018-08-13T18:50:17.980Z,60.20
2018-08-13T18:52:46.649Z,60.88
2018-08-13T18:55:16.494Z,61.64
2018-08-13T18:57:44.990Z,61.41
2018-08-13T19:00:17.869Z,61.32
2018-08-13T19:02:46.159Z,61.34
2018-08-13T19:05:16.088Z,60.99
2018-08-13T19:07:45.217Z,61.20
2018-08-13T19:10:14.486Z,60.22
2018-08-13T19:12:42.758Z,59.76
2018-08-13T19:15:13.205Z,59.96
2018-08-13T19:17:41.505Z,58.97
2018-08-13T19:20:11.723Z,58.58
2018-08-13T19:22:40.044Z,58.78
2018-08-13T19:25:12.577Z,58.31
2018-08-13T19:27:41.116Z,60.16
2018-08-13T19:30:10.729Z,65.19
2018-08-13T19:32:38.996Z,70.52
2018-08-13T19:35:08.142Z,74.41
2018-08-13T19:37:36.393Z,75.26
2018-08-13T19:40:07.149Z,77.18
2018-08-13T19:42:35.502Z,77.27
2018-08-13T19:45:04.083Z,78.46
2018-08-13T19:47:32.339Z,79.15
2018-08-13T19:50:00.663Z,78.66
2018-08-13T19:52:28.938Z,79.34
2018-08-13T19:54:57.437Z,79.12
2018-08-13T19:57:25.723Z,80.43
2018-08-13T19:59:53.998Z,80.33
2018-08-13T20:02:22.289Z,81.33
2018-08-13T20:04:53.339Z,81.64
2018-08-13T20:07:21.693Z,83.10
2018-08-13T20:09:49.957Z,83.10
2018-08-13T20:12:18.361Z,81.78
2018-08-13T20:14:46.665Z,82.12
2018-08-13T20:17:14.976Z,82.80
2018-08-13T20:19:43.345Z,82.83
2018-08-13T20:22:15.087Z,82.66
2018-08-13T20:24:43.750Z,82.32
2018-08-13T20:27:12.097Z,83.37
2018-08-13T20:29:40.396Z,84.45
2018-08-13T20:32:09.440Z,84.29
2018-08-13T20:34:37.721Z,83.64
2018-08-13T20:37:06.108Z,83.93
2018-08-13T20:39:34.317Z,83.49
2018-08-13T20:42:02.613Z,83.00
2018-08-13T20:44:30.939Z,83.54
2018-08-13T20:46:59.241Z,83.73
2018-08-13T20:49:27.626Z,84.54
2018-08-13T20:51:55.851Z,85.25
2018-08-13T20:54:24.177Z,84.62
2018-08-13T20:56:52.447Z,85.73
2018-08-13T20:59:20.741Z,85.27
2018-08-13T21:01:49.006Z,84.73
2018-08-13T21:04:17.652Z,83.93
2018-08-13T21:06:45.932Z,84.07
2018-08-13T21:09:14.361Z,84.98
2018-08-13T21:11:42.549Z,84.63
2018-08-13T21:14:10.885Z,84.31
2018-08-13T21:16:39.165Z,85.25
2018-08-13T21:19:07.493Z,86.33
2018-08-13T21:21:35.769Z,87.39
2018-08-13T21:24:04.477Z,86.84
2018-08-13T21:26:32.746Z,87.05
2018-08-13T21:29:01.022Z,87.41
2018-08-13T21:31:29.322Z,88.38
2018-08-13T21:33:57.634Z,88.07
2018-08-13T21:36:25.958Z,88.06
2018-08-13T21:38:55.367Z,88.42
2018-08-13T21:41:24.242Z,88.91
2018-08-13T21:43:53.516Z,88.13
2018-08-13T21:46:21.839Z,88.45
2018-08-13T21:48:50.323Z,88.46
2018-08-13T21:51:18.641Z,88.95
2018-08-13T21:53:46.912Z,89.37
2018-08-13T21:56:15.349Z,89.15
2018-08-13T21:58:43.625Z,89.00
2018-08-13T22:01:17.254Z,88.90
2018-08-13T22:03:45.534Z,88.86
2018-08-13T22:06:13.872Z,90.08
2018-08-13T22:08:42.405Z,89.95
2018-08-13T22:11:11.309Z,90.47
2018-08-13T22:13:39.637Z,90.77
2018-08-13T22:16:07.933Z,90.31
2018-08-13T22:18:36.204Z,90.30
2018-08-13T22:21:06.021Z,89.93
2018-08-13T22:23:34.305Z,89.67
2018-08-13T22:26:02.633Z,89.16
2018-08-13T22:28:30.912Z,90.14
2018-08-13T22:30:59.440Z,90.22
2018-08-13T22:33:27.713Z,90.73
2018-08-13T22:35:55.993Z,90.49
2018-08-13T22:38:24.277Z,89.81
2018-08-13T22:40:52.605Z,89.27
2018-08-13T22:43:21.997Z,89.77
2018-08-13T22:45:50.250Z,89.02
2018-08-13T22:48:18.553Z,89.21
2018-08-13T22:50:46.862Z,88.02
2018-08-13T22:53:15.159Z,87.75
2018-08-13T22:55:43.425Z,88.02
2018-08-13T22:58:11.883Z,88.00
2018-08-13T23:00:40.219Z,88.43
2018-08-13T23:03:08.480Z,89.41
2018-08-13T23:05:36.765Z,89.66
2018-08-13T23:08:05.266Z,90.19
2018-08-13T23:10:33.549Z,90.85
2018-08-13T23:13:01.885Z,90.57
2018-08-13T23:15:30.204Z,91.46
2018-08-13T23:17:58.505Z,91.37
2018-08-13T23:20:28.601Z,91.26
2018-08-13T23:22:59.080Z,91.25
2018-08-13T23:25:28.009Z,90.29
2018-08-13T23:27:57.428Z,90.36
2018-08-13T23:30:25.769Z,90.13
2018-08-13T23:32:55.061Z,90.92
2018-08-13T23:35:24.069Z,90.70
2018-08-13T23:37:52.654Z,91.14
2018-08-13T23:40:20.999Z,91.30
2018-08-13T23:42:49.313Z,90.79
2018-08-13T23:45:20.929Z,91.09
2018-08-13T23:47:49.233Z,91.17
2018-08-13T23:50:19.596Z,92.03
2018-08-13T23:52:48.980Z,92.52
2018-08-13T23:55:32.633Z,91.66
2018-08-13T23:58:01.459Z,91.86
